createdAt,value
2023-01-21T00:00:08.393Z,7.85
2023-01-21T00:02:34.885Z,7.15
2023-01-21T00:05:01.371Z,7.35
2023-01-21T00:07:27.840Z,7.03
2023-01-21T00:09:54.209Z,9.23
2023-01-21T00:12:20.763Z,7.63
2023-01-21T00:14:47.342Z,8.43
2023-01-21T00:17:13.771Z,8.50
2023-01-21T00:19:40.215Z,7.32
2023-01-21T00:22:06.736Z,7.97
2023-01-21T00:24:33.143Z,8.55
2023-01-21T00:27:00.348Z,8.07
2023-01-21T00:29:26.819Z,8.40
2023-01-21T00:31:53.331Z,7.57
2023-01-21T00:34:19.946Z,9.20
2023-01-21T00:36:46.465Z,9.10
2023-01-21T00:39:12.847Z,8.18
2023-01-21T00:41:39.290Z,7.40
2023-01-21T00:44:05.908Z,7.45
2023-01-21T00:46:32.860Z,8.27
2023-01-21T00:49:00.218Z,10.20
2023-01-21T00:51:27.339Z,9.45
2023-01-21T00:53:53.973Z,10.77
2023-01-21T00:56:20.606Z,8.50
2023-01-21T00:58:47.166Z,9.73
2023-01-21T01:01:17.259Z,11.07
2023-01-21T01:03:44.604Z,8.77
2023-01-21T01:06:17.892Z,8.93
2023-01-21T01:08:45.543Z,9.60
2023-01-21T01:11:13.011Z,9.27
2023-01-21T01:13:39.410Z,9.45
2023-01-21T01:16:06.909Z,10.55
2023-01-21T01:18:34.961Z,10.65
2023-01-21T01:21:02.165Z,11.60
2023-01-21T01:23:28.958Z,11.95
2023-01-21T01:26:00.981Z,11.52
2023-01-21T01:28:28.060Z,10.15
2023-01-21T01:30:54.710Z,9.25
2023-01-21T01:33:21.781Z,8.57
2023-01-21T01:35:48.600Z,8.10
2023-01-21T01:38:16.204Z,9.05
2023-01-21T01:40:43.124Z,8.18
2023-01-21T01:43:18.860Z,9.23
2023-01-21T01:45:47.266Z,7.93
2023-01-21T01:48:30.028Z,9.30
2023-01-21T01:51:00.818Z,8.23
2023-01-21T01:53:30.302Z,8.27
2023-01-21T01:55:57.609Z,9.02
2023-01-21T01:58:24.584Z,7.95
2023-01-21T02:00:51.192Z,8.32
2023-01-21T02:03:36.722Z,8.10
2023-01-21T02:06:03.491Z,7.38
2023-01-21T02:08:32.625Z,7.57
2023-01-21T02:10:59.070Z,8.82
2023-01-21T02:13:28.237Z,10.60
2023-01-21T02:16:46.285Z,9.23
2023-01-21T02:19:42.265Z,7.53
2023-01-21T02:22:21.583Z,7.47
2023-01-21T02:25:19.187Z,8.80
2023-01-21T02:28:09.958Z,8.38
2023-01-21T02:30:48.829Z,8.63
2023-01-21T02:33:36.941Z,10.27
2023-01-21T02:36:12.160Z,9.35
2023-01-21T02:39:04.925Z,7.38
2023-01-21T02:41:56.197Z,7.95
2023-01-21T02:44:42.876Z,6.78
2023-01-21T02:47:17.900Z,6.50
2023-01-21T02:50:07.601Z,8.25
2023-01-21T02:52:34.123Z,8.27
2023-01-21T02:55:02.417Z,7.18
2023-01-21T02:57:34.674Z,8.10
2023-01-21T03:00:06.354Z,7.00
2023-01-21T03:03:14.859Z,8.05
2023-01-21T03:05:51.023Z,7.18
2023-01-21T03:08:22.116Z,8.48
2023-01-21T03:11:15.008Z,8.10
2023-01-21T03:14:10.681Z,8.18
2023-01-21T03:16:56.970Z,7.70
2023-01-21T03:19:44.489Z,8.68
2023-01-21T03:22:19.560Z,8.63
2023-01-21T03:24:49.735Z,10.20
2023-01-21T03:27:20.000Z,8.55
2023-01-21T03:29:49.859Z,10.27
2023-01-21T03:32:18.645Z,9.30
2023-01-21T03:34:50.798Z,7.55
2023-01-21T03:37:35.895Z,6.25
2023-01-21T03:40:25.735Z,7.90
2023-01-21T03:42:56.078Z,7.50
2023-01-21T03:45:34.707Z,6.95
2023-01-21T03:48:11.855Z,9.90
2023-01-21T03:50:42.831Z,7.47
2023-01-21T03:53:09.895Z,7.22
2023-01-21T03:55:36.697Z,8.88
2023-01-21T03:58:03.365Z,9.00
2023-01-21T04:00:29.849Z,10.00
2023-01-21T04:02:56.433Z,8.07
2023-01-21T04:05:22.846Z,7.93
2023-01-21T04:07:49.285Z,6.95
2023-01-21T04:10:16.871Z,8.25
2023-01-21T04:12:43.372Z,8.18
2023-01-21T04:15:10.421Z,7.45
2023-01-21T04:17:36.811Z,6.57
2023-01-21T04:20:03.502Z,7.78
2023-01-21T04:22:29.888Z,7.85
2023-01-21T04:24:56.369Z,6.80
2023-01-21T04:27:22.761Z,7.47
2023-01-21T04:29:49.142Z,6.63
2023-01-21T04:32:15.634Z,7.85
2023-01-21T04:34:42.060Z,9.45
2023-01-21T04:37:08.813Z,10.52
2023-01-21T04:39:35.210Z,9.77
2023-01-21T04:42:01.689Z,9.45
2023-01-21T04:44:28.153Z,6.90
2023-01-21T04:46:54.587Z,8.45
2023-01-21T04:49:20.999Z,8.02
2023-01-21T04:51:47.429Z,7.50
2023-01-21T04:54:13.911Z,8.38
2023-01-21T04:56:40.435Z,8.48
2023-01-21T04:59:06.938Z,8.10
2023-01-21T05:01:33.569Z,7.95
2023-01-21T05:04:00.145Z,8.68
2023-01-21T05:06:26.508Z,8.23
2023-01-21T05:08:52.916Z,9.23
2023-01-21T05:11:22.702Z,8.68
2023-01-21T05:13:49.107Z,9.15
2023-01-21T05:16:15.744Z,8.45
2023-01-21T05:18:42.387Z,8.32
2023-01-21T05:21:09.199Z,8.05
2023-01-21T05:23:35.755Z,9.45
2023-01-21T05:26:02.287Z,8.43
2023-01-21T05:28:28.648Z,7.15
2023-01-21T05:30:55.248Z,8.32
2023-01-21T05:33:26.077Z,8.10
2023-01-21T05:35:52.679Z,8.77
2023-01-21T05:38:19.034Z,9.73
2023-01-21T05:40:45.490Z,9.75
2023-01-21T05:43:11.910Z,9.25
2023-01-21T05:45:38.490Z,8.93
2023-01-21T05:48:05.333Z,8.02
2023-01-21T05:50:32.538Z,7.10
2023-01-21T05:52:58.940Z,8.38
2023-01-21T05:55:25.587Z,9.25
2023-01-21T05:57:52.100Z,8.07
2023-01-21T06:00:19.337Z,7.38
2023-01-21T06:02:46.254Z,7.47
2023-01-21T06:05:12.758Z,6.35
2023-01-21T06:07:39.180Z,7.30
2023-01-21T06:10:06.253Z,6.97
2023-01-21T06:12:32.669Z,6.63
2023-01-21T06:15:00.529Z,6.35
2023-01-21T06:17:27.053Z,6.28
2023-01-21T06:19:53.744Z,8.10
2023-01-21T06:22:20.426Z,9.98
2023-01-21T06:24:46.817Z,10.15
2023-01-21T06:27:13.303Z,7.90
2023-01-21T06:29:39.815Z,8.60
2023-01-21T06:32:06.686Z,8.73
2023-01-21T06:34:33.182Z,6.85
2023-01-21T06:36:59.591Z,7.68
2023-01-21T06:39:26.020Z,7.15
2023-01-21T06:41:55.008Z,8.65
2023-01-21T06:44:21.893Z,11.85
2023-01-21T06:47:00.213Z,9.23
2023-01-21T06:49:27.270Z,7.65
2023-01-21T06:51:53.672Z,8.25
2023-01-21T06:54:20.105Z,10.25
2023-01-21T06:56:47.636Z,11.15
2023-01-21T06:59:14.100Z,14.55
2023-01-21T07:01:40.662Z,8.98
2023-01-21T07:04:07.068Z,8.60
2023-01-21T07:06:33.497Z,7.60
2023-01-21T07:08:59.980Z,6.90
2023-01-21T07:11:26.484Z,6.85
2023-01-21T07:13:52.913Z,7.22
2023-01-21T07:16:19.574Z,7.95
2023-01-21T07:18:46.013Z,6.88
2023-01-21T07:21:12.527Z,7.78
2023-01-21T07:23:39.171Z,8.48
2023-01-21T07:26:06.292Z,7.80
2023-01-21T07:28:33.359Z,7.80
2023-01-21T07:31:00.442Z,7.32
2023-01-21T07:33:27.621Z,6.90
2023-01-21T07:35:54.084Z,7.30
2023-01-21T07:38:20.800Z,7.28
2023-01-21T07:40:51.059Z,7.82
2023-01-21T07:43:17.805Z,6.47
2023-01-21T07:45:44.421Z,6.25
2023-01-21T07:48:11.188Z,6.75
2023-01-21T07:50:37.790Z,7.47
2023-01-21T07:53:04.653Z,7.15
2023-01-21T07:55:31.475Z,7.55
2023-01-21T07:57:58.845Z,7.60
2023-01-21T08:00:29.338Z,7.05
2023-01-21T08:02:57.327Z,7.32
2023-01-21T08:05:25.458Z,6.55
2023-01-21T08:07:52.333Z,8.32
2023-01-21T08:10:19.635Z,9.38
2023-01-21T08:12:46.068Z,8.98
2023-01-21T08:15:12.598Z,10.05
2023-01-21T08:17:43.696Z,9.90
2023-01-21T08:20:11.619Z,9.52
2023-01-21T08:22:38.225Z,10.65
2023-01-21T08:25:06.002Z,10.38
2023-01-21T08:27:33.250Z,11.13
2023-01-21T08:29:59.865Z,11.27
2023-01-21T08:32:28.957Z,10.15
2023-01-21T08:34:55.372Z,10.18
2023-01-21T08:37:21.979Z,13.13
2023-01-21T08:39:48.563Z,10.50
2023-01-21T08:42:15.089Z,8.18
2023-01-21T08:44:41.507Z,8.73
2023-01-21T08:47:08.064Z,8.32
2023-01-21T08:49:34.675Z,9.27
2023-01-21T08:52:01.469Z,8.18
2023-01-21T08:54:27.977Z,9.00
2023-01-21T08:56:54.370Z,10.70
2023-01-21T08:59:28.806Z,8.95
2023-01-21T09:01:56.575Z,9.27
2023-01-21T09:04:23.476Z,9.35
2023-01-21T09:06:50.121Z,9.77
2023-01-21T09:09:16.601Z,9.55
2023-01-21T09:11:43.037Z,10.73
2023-01-21T09:14:09.510Z,14.30
2023-01-21T09:16:36.586Z,10.98
2023-01-21T09:19:03.115Z,10.18
2023-01-21T09:21:29.572Z,10.13
2023-01-21T09:23:56.291Z,10.50
2023-01-21T09:26:23.749Z,11.10
2023-01-21T09:28:58.741Z,10.27
2023-01-21T09:31:26.750Z,11.00
2023-01-21T09:33:55.832Z,10.38
2023-01-21T09:36:24.984Z,8.82
2023-01-21T09:38:51.924Z,9.95
2023-01-21T09:41:36.203Z,9.90
2023-01-21T09:44:36.918Z,9.55
2023-01-21T09:47:18.259Z,9.50
2023-01-21T09:50:14.141Z,9.65
2023-01-21T09:52:42.113Z,10.15
2023-01-21T09:55:53.143Z,11.18
2023-01-21T09:58:38.499Z,9.20
2023-01-21T10:01:31.306Z,10.68
2023-01-21T10:04:09.914Z,12.38
2023-01-21T10:07:05.541Z,11.85
2023-01-21T10:10:09.710Z,10.73
2023-01-21T10:12:54.900Z,9.38
2023-01-21T10:15:24.454Z,10.32
2023-01-21T10:18:23.687Z,11.50
2023-01-21T10:21:06.887Z,9.63
2023-01-21T10:23:57.480Z,14.85
2023-01-21T10:26:26.406Z,12.07
2023-01-21T10:28:55.617Z,11.00
2023-01-21T10:31:30.276Z,12.73
2023-01-21T10:33:56.837Z,10.95
2023-01-21T10:36:52.257Z,11.30
2023-01-21T10:39:44.348Z,10.48
2023-01-21T10:42:31.372Z,11.90
2023-01-21T10:45:16.937Z,11.43
2023-01-21T10:48:05.187Z,10.85
2023-01-21T10:51:10.511Z,10.32
2023-01-21T10:53:41.221Z,13.85
2023-01-21T10:56:26.577Z,13.02
2023-01-21T10:58:58.981Z,12.77
2023-01-21T11:01:32.985Z,17.90
2023-01-21T11:04:04.933Z,13.63
2023-01-21T11:06:33.356Z,12.90
2023-01-21T11:09:03.504Z,12.48
2023-01-21T11:11:33.172Z,13.50
2023-01-21T11:13:59.561Z,13.40
2023-01-21T11:16:34.910Z,12.07
2023-01-21T11:19:04.372Z,13.35
2023-01-21T11:21:30.995Z,15.02
2023-01-21T11:24:03.699Z,13.15
2023-01-21T11:26:35.314Z,12.75
2023-01-21T11:29:11.044Z,11.27
2023-01-21T11:31:38.321Z,11.60
2023-01-21T11:34:10.492Z,10.88
2023-01-21T11:36:37.005Z,11.23
2023-01-21T11:39:09.375Z,10.27
2023-01-21T11:41:36.287Z,10.48
2023-01-21T11:44:17.604Z,11.55
2023-01-21T11:46:44.616Z,10.50
2023-01-21T11:49:11.352Z,11.48
2023-01-21T11:51:40.266Z,9.95
2023-01-21T11:54:08.261Z,10.55
2023-01-21T11:56:36.573Z,11.02
2023-01-21T11:59:21.489Z,10.27
2023-01-21T12:01:55.941Z,9.73
2023-01-21T12:04:24.617Z,12.00
2023-01-21T12:06:55.691Z,10.60
2023-01-21T12:09:22.225Z,10.73
2023-01-21T12:12:07.689Z,9.80
2023-01-21T12:14:50.817Z,10.98
2023-01-21T12:17:38.393Z,10.82
2023-01-21T12:20:11.513Z,10.15
2023-01-21T12:22:52.311Z,11.00
2023-01-21T12:25:21.659Z,10.98
2023-01-21T12:28:03.988Z,10.43
2023-01-21T12:30:43.867Z,9.43
2023-01-21T12:33:20.997Z,10.68
2023-01-21T12:35:52.474Z,10.75
2023-01-21T12:38:31.428Z,11.40
2023-01-21T12:41:04.189Z,9.82
2023-01-21T12:43:35.156Z,10.95
2023-01-21T12:46:13.895Z,10.02
2023-01-21T12:48:48.664Z,10.75
2023-01-21T12:51:22.649Z,10.52
2023-01-21T12:54:14.371Z,11.77
2023-01-21T12:56:43.186Z,10.73
2023-01-21T12:59:17.687Z,11.63
2023-01-21T13:02:15.363Z,10.27
2023-01-21T13:05:04.604Z,9.57
2023-01-21T13:07:46.592Z,10.88
2023-01-21T13:13:06.618Z,10.90
2023-01-21T13:15:38.193Z,11.30
2023-01-21T13:18:33.140Z,9.98
2023-01-21T13:21:30.279Z,9.85
2023-01-21T13:24:17.939Z,10.23
2023-01-21T13:27:16.419Z,9.43
2023-01-21T13:30:15.249Z,10.55
2023-01-21T13:33:10.308Z,9.82
2023-01-21T13:35:36.625Z,11.13
2023-01-21T13:38:27.233Z,11.10
2023-01-21T13:41:02.521Z,10.73
2023-01-21T13:46:18.832Z,9.60
2023-01-21T13:49:08.750Z,10.10
2023-01-21T13:51:45.995Z,10.05
2023-01-21T13:54:29.484Z,10.13
2023-01-21T13:57:12.698Z,9.55
2023-01-21T13:59:48.060Z,10.25
2023-01-21T14:02:41.864Z,10.18
2023-01-21T14:05:16.025Z,10.75
2023-01-21T14:08:02.698Z,9.68
2023-01-21T14:10:44.161Z,9.85
2023-01-21T14:13:29.247Z,9.50
2023-01-21T14:16:28.128Z,8.57
2023-01-21T14:19:06.586Z,10.10
2023-01-21T14:21:54.797Z,11.35
2023-01-21T14:24:54.013Z,10.90
2023-01-21T14:27:36.198Z,10.32
2023-01-21T14:30:28.619Z,11.60
2023-01-21T14:33:02.457Z,10.80
2023-01-21T14:35:36.318Z,11.52
2023-01-21T14:38:18.527Z,10.90
2023-01-21T14:40:49.382Z,10.40
2023-01-21T14:43:40.515Z,10.50
2023-01-21T14:46:28.389Z,9.70
2023-01-21T14:49:09.366Z,10.40
2023-01-21T14:51:41.934Z,10.38
2023-01-21T14:54:26.496Z,9.65
2023-01-21T14:57:10.230Z,9.85
2023-01-21T14:59:46.069Z,9.40
2023-01-21T15:02:33.532Z,9.93
2023-01-21T15:05:27.911Z,10.88
2023-01-21T15:08:46.019Z,9.13
2023-01-21T15:11:36.773Z,9.32
2023-01-21T15:14:29.107Z,10.55
2023-01-21T15:16:55.602Z,9.10
2023-01-21T15:19:28.296Z,10.77
2023-01-21T15:22:18.011Z,10.10
2023-01-21T15:25:17.175Z,10.88
2023-01-21T15:28:38.370Z,10.68
2023-01-21T15:31:10.040Z,9.65
2023-01-21T15:33:41.380Z,11.23
2023-01-21T15:36:20.073Z,9.68
2023-01-21T15:38:46.740Z,10.95
2023-01-21T15:41:24.540Z,10.35
2023-01-21T15:44:02.457Z,9.90
2023-01-21T15:46:47.950Z,9.65
2023-01-21T15:49:27.731Z,10.20
2023-01-21T15:52:17.793Z,9.27
2023-01-21T15:54:55.707Z,10.98
2023-01-21T15:57:53.136Z,10.48
2023-01-21T16:00:32.879Z,9.93
2023-01-21T16:03:18.124Z,9.85
2023-01-21T16:05:58.922Z,10.57
2023-01-21T16:08:31.427Z,11.23
2023-01-21T16:11:23.389Z,11.05
2023-01-21T16:14:03.524Z,9.70
2023-01-21T16:16:43.714Z,10.85
2023-01-21T16:19:21.313Z,11.00
2023-01-21T16:21:54.067Z,11.07
2023-01-21T16:24:25.010Z,11.32
2023-01-21T16:26:51.466Z,10.20
2023-01-21T16:29:18.010Z,11.00
2023-01-21T16:31:59.632Z,12.25
2023-01-21T16:34:40.444Z,11.10
2023-01-21T16:37:11.103Z,11.02
2023-01-21T16:39:37.868Z,10.70
2023-01-21T16:42:06.660Z,10.98
2023-01-21T16:44:35.251Z,9.23
2023-01-21T16:49:29.096Z,10.82
2023-01-21T16:51:59.124Z,9.55
2023-01-21T16:54:31.425Z,10.93
2023-01-21T16:57:02.045Z,9.52
2023-01-21T16:59:37.539Z,9.25
2023-01-21T17:02:05.032Z,9.45
2023-01-21T17:04:31.577Z,9.02
2023-01-21T17:06:58.632Z,9.20
2023-01-21T17:09:30.955Z,9.60
2023-01-21T17:12:01.785Z,9.80
2023-01-21T17:14:30.626Z,8.55
2023-01-21T17:16:59.819Z,9.88
2023-01-21T17:19:35.410Z,8.32
2023-01-21T17:22:09.627Z,9.35
2023-01-21T17:24:43.794Z,8.35
2023-01-21T17:27:15.266Z,8.90
2023-01-21T17:29:43.444Z,8.10
2023-01-21T17:32:32.102Z,8.30
2023-01-21T17:35:16.944Z,8.10
2023-01-21T17:37:53.012Z,7.75
2023-01-21T17:40:45.893Z,7.97
2023-01-21T17:43:20.676Z,9.30
2023-01-21T17:45:49.321Z,8.40
2023-01-21T17:48:32.648Z,8.65
2023-01-21T17:51:14.612Z,8.75
2023-01-21T17:53:52.505Z,7.93
2023-01-21T17:56:34.859Z,8.13
2023-01-21T17:59:04.405Z,8.68
2023-01-21T18:01:31.633Z,7.35
2023-01-21T18:03:58.124Z,8.00
2023-01-21T18:06:27.685Z,8.73
2023-01-21T18:08:56.823Z,7.78
2023-01-21T18:11:23.253Z,10.68
2023-01-21T18:13:50.162Z,9.70
2023-01-21T18:16:16.630Z,8.07
2023-01-21T18:18:43.246Z,7.80
2023-01-21T18:21:18.896Z,7.28
2023-01-21T18:23:45.583Z,7.28
2023-01-21T18:26:32.340Z,7.57
2023-01-21T18:28:58.883Z,7.60
2023-01-21T18:31:25.517Z,8.63
2023-01-21T18:33:52.062Z,7.15
2023-01-21T18:36:18.535Z,8.48
2023-01-21T18:38:45.137Z,8.07
2023-01-21T18:41:11.893Z,7.85
2023-01-21T18:43:38.366Z,7.70
2023-01-21T18:46:10.972Z,6.93
2023-01-21T18:48:37.395Z,8.57
2023-01-21T18:51:04.594Z,7.97
2023-01-21T18:53:31.105Z,7.72
2023-01-21T18:55:57.479Z,7.70
2023-01-21T18:58:24.005Z,7.80
2023-01-21T19:00:50.715Z,8.40
2023-01-21T19:03:17.584Z,8.50
2023-01-21T19:05:47.528Z,8.82
2023-01-21T19:08:19.137Z,8.00
2023-01-21T19:10:45.671Z,8.52
2023-01-21T19:13:12.486Z,8.77
2023-01-21T19:15:39.629Z,8.02
2023-01-21T19:18:11.284Z,9.02
2023-01-21T19:20:41.550Z,8.07
2023-01-21T19:23:15.637Z,8.13
2023-01-21T19:25:45.587Z,8.45
2023-01-21T19:28:13.430Z,9.55
2023-01-21T19:30:44.957Z,8.05
2023-01-21T19:33:11.781Z,8.38
2023-01-21T19:35:40.547Z,8.80
2023-01-21T19:38:12.160Z,9.13
2023-01-21T19:40:38.661Z,9.20
2023-01-21T19:43:05.620Z,8.23
2023-01-21T19:45:32.133Z,8.13
2023-01-21T19:47:58.549Z,9.00
2023-01-21T19:50:27.277Z,8.45
2023-01-21T19:52:54.393Z,9.43
2023-01-21T19:55:25.233Z,8.73
2023-01-21T19:57:57.898Z,8.32
2023-01-21T20:00:27.628Z,8.95
2023-01-21T20:02:54.749Z,9.32
2023-01-21T20:05:22.112Z,10.05
2023-01-21T20:07:50.540Z,9.63
2023-01-21T20:12:46.891Z,9.05
2023-01-21T20:15:15.207Z,9.63
2023-01-21T20:20:15.105Z,8.93
2023-01-21T20:22:41.469Z,10.90
2023-01-21T20:25:09.750Z,10.60
2023-01-21T20:27:36.176Z,9.73
2023-01-21T20:30:15.135Z,10.90
2023-01-21T20:32:43.323Z,9.85
2023-01-21T20:35:10.299Z,11.38
2023-01-21T20:37:36.873Z,10.50
2023-01-21T20:40:03.568Z,11.20
2023-01-21T20:44:57.314Z,11.93
2023-01-21T20:47:32.631Z,11.73
2023-01-21T20:50:14.503Z,10.73
2023-01-21T20:52:40.899Z,10.82
2023-01-21T20:55:08.046Z,11.40
2023-01-21T20:57:34.408Z,10.07
2023-01-21T21:00:00.922Z,11.40
2023-01-21T21:02:27.294Z,11.52
2023-01-21T21:04:53.744Z,11.32
2023-01-21T21:07:25.947Z,10.93
2023-01-21T21:09:57.102Z,9.82
2023-01-21T21:12:24.273Z,11.52
2023-01-21T21:14:51.168Z,11.80
2023-01-21T21:17:17.551Z,10.52
2023-01-21T21:19:44.248Z,11.23
2023-01-21T21:22:11.285Z,10.25
2023-01-21T21:24:37.672Z,11.25
2023-01-21T21:27:04.276Z,12.57
2023-01-21T21:29:30.721Z,10.98
2023-01-21T21:32:01.494Z,9.70
2023-01-21T21:34:27.956Z,9.95
2023-01-21T21:36:54.649Z,8.88
2023-01-21T21:39:22.230Z,10.02
2023-01-21T21:42:07.038Z,9.63
2023-01-21T21:44:33.568Z,10.52
2023-01-21T21:47:18.643Z,10.52
2023-01-21T21:49:45.228Z,9.00
2023-01-21T21:52:17.267Z,10.45
2023-01-21T21:54:44.295Z,9.07
2023-01-21T21:57:13.713Z,10.82
2023-01-21T21:59:42.434Z,12.63
2023-01-21T22:02:11.424Z,10.82
2023-01-21T22:04:38.092Z,10.50
2023-01-21T22:07:04.617Z,10.35
2023-01-21T22:09:31.263Z,8.65
2023-01-21T22:11:57.705Z,9.80
2023-01-21T22:14:24.134Z,10.40
2023-01-21T22:16:51.824Z,9.00
2023-01-21T22:19:18.343Z,10.32
2023-01-21T22:21:44.750Z,10.98
2023-01-21T22:24:11.912Z,9.52
2023-01-21T22:26:38.500Z,10.25
2023-01-21T22:29:05.749Z,8.60
2023-01-21T22:31:33.112Z,9.35
2023-01-21T22:34:00.111Z,9.23
2023-01-21T22:36:29.523Z,10.05
2023-01-21T22:38:56.242Z,10.35
2023-01-21T22:41:24.063Z,9.00
2023-01-21T22:43:51.792Z,9.35
2023-01-21T22:46:22.535Z,9.93
2023-01-21T22:48:49.533Z,10.70
2023-01-21T22:51:18.598Z,9.77
2023-01-21T22:53:45.294Z,11.50
2023-01-21T22:56:14.045Z,9.60
2023-01-21T22:58:40.566Z,10.77
2023-01-21T23:01:08.430Z,9.77
2023-01-21T23:03:34.915Z,9.10
2023-01-21T23:06:06.415Z,10.27
2023-01-21T23:08:33.328Z,8.82
2023-01-21T23:11:02.291Z,7.57
2023-01-21T23:13:28.820Z,8.90
2023-01-21T23:15:56.052Z,9.93
2023-01-21T23:18:22.520Z,12.32
2023-01-21T23:20:48.917Z,9.45
2023-01-21T23:23:15.393Z,10.40
2023-01-21T23:25:43.150Z,9.32
2023-01-21T23:28:10.092Z,10.75
2023-01-21T23:30:36.857Z,9.70
2023-01-21T23:33:03.761Z,8.30
2023-01-21T23:35:31.155Z,9.05
2023-01-21T23:37:57.996Z,9.38
2023-01-21T23:40:24.433Z,7.40
2023-01-21T23:42:51.077Z,7.90
2023-01-21T23:45:17.759Z,10.75
2023-01-21T23:47:44.189Z,8.38
2023-01-21T23:50:12.770Z,10.40
2023-01-21T23:52:39.964Z,7.80
2023-01-21T23:55:09.232Z,7.95
2023-01-21T23:57:35.859Z,7.65
